Time;durP1;ratioP1;P1;durP2;ratioP2;P2;SDS_P1;SDS_P2;PMS_P1;PMS_P2;Temp;Humidity;BMP_temperature;BMP_pressure;BME280_temperature;BME280_humidity;BME280_pressure;Samples;Min_cycle;Max_cycle;Signal;HPM_P1;HPM_P2
2022/05/11 00:01:00;;;;;;;15.45;6.28;;;14.00;99.90;;;;;;4976027;28;253784;-66
2022/05/11 00:03:26;;;;;;;17.00;6.30;;;14.00;99.90;;;;;;4933242;28;210885;-66
2022/05/11 00:05:53;;;;;;;12.52;5.93;;;14.00;99.90;;;;;;4946876;28;252330;-66
2022/05/11 00:08:19;;;;;;;15.35;6.38;;;14.00;99.90;;;;;;4949538;28;218970;-66
2022/05/11 00:10:46;;;;;;;13.05;6.03;;;14.00;99.90;;;;;;4941872;28;210278;-67
2022/05/11 00:13:12;;;;;;;11.85;5.80;;;14.00;99.90;;;;;;4997354;28;20058;-66
2022/05/11 00:15:38;;;;;;;14.20;6.10;;;14.00;99.90;;;;;;4901011;28;206828;-66
2022/05/11 00:18:04;;;;;;;13.65;6.25;;;14.00;99.90;;;;;;4993654;28;20066;-67
2022/05/11 00:20:31;;;;;;;14.13;6.15;;;14.00;99.90;;;;;;4938625;28;210793;-66
2022/05/11 00:22:59;;;;;;;16.60;5.90;;;14.00;99.90;;;;;;4965092;28;20058;-66
2022/05/11 00:25:27;;;;;;;15.88;6.90;;;14.00;99.90;;;;;;4943423;28;191099;-67
2022/05/11 00:27:54;;;;;;;14.23;6.78;;;14.00;99.90;;;;;;4965348;28;20047;-66
2022/05/11 00:30:21;;;;;;;13.65;6.15;;;14.00;99.90;;;;;;4919813;28;206618;-67
2022/05/11 00:32:50;;;;;;;15.88;6.50;;;14.10;99.90;;;;;;4966520;28;20419;-67
2022/05/11 00:35:16;;;;;;;12.48;5.90;;;14.10;99.90;;;;;;4919021;28;206535;-66
2022/05/11 00:37:43;;;;;;;13.32;6.43;;;14.00;99.90;;;;;;4996795;28;20061;-66
2022/05/11 00:40:09;;;;;;;12.85;5.88;;;14.10;99.90;;;;;;4914506;28;211963;-66
2022/05/11 00:42:35;;;;;;;13.23;6.28;;;14.00;99.90;;;;;;4968988;28;20060;-66
2022/05/11 00:45:03;;;;;;;17.33;6.65;;;14.10;99.90;;;;;;4916803;28;211999;-66
2022/05/11 00:47:52;;;;;;;15.25;6.32;;;14.10;99.90;;;;;;4966574;28;20054;-66
2022/05/11 00:50:23;;;;;;;12.70;5.70;;;14.10;99.90;;;;;;4939101;28;206515;-66
2022/05/11 00:53:09;;;;;;;11.88;5.50;;;14.00;99.90;;;;;;4974540;28;20222;-66
2022/05/11 00:55:40;;;;;;;11.95;5.32;;;14.00;99.90;;;;;;4938465;28;209964;-66
2022/05/11 00:58:14;;;;;;;14.27;5.57;;;14.00;99.90;;;;;;4965622;28;20745;-66
2022/05/11 01:00:43;;;;;;;11.40;5.13;;;14.00;99.90;;;;;;4918981;28;204391;-67
2022/05/11 01:03:16;;;;;;;15.65;5.65;;;14.00;99.90;;;;;;4963902;28;20388;-66
2022/05/11 01:05:44;;;;;;;12.57;5.05;;;13.90;99.90;;;;;;4896535;28;268314;-66
2022/05/11 01:08:11;;;;;;;13.10;5.28;;;13.90;99.90;;;;;;4961311;28;20070;-66
2022/05/11 01:10:37;;;;;;;14.20;5.80;;;13.90;99.90;;;;;;4904169;28;206622;-66
2022/05/11 01:13:08;;;;;;;13.50;4.80;;;13.90;99.90;;;;;;4993993;28;20359;-66
2022/05/11 01:15:34;;;;;;;13.07;5.10;;;13.90;99.90;;;;;;4933488;28;212769;-66
2022/05/11 01:18:06;;;;;;;13.15;4.97;;;13.90;99.90;;;;;;4964008;28;20055;-66
2022/05/11 01:20:35;;;;;;;13.38;5.35;;;13.80;99.90;;;;;;4938543;28;210564;-66
2022/05/11 01:23:26;;;;;;;14.40;5.13;;;13.90;99.90;;;;;;4975396;28;20535;-66
2022/05/11 01:25:54;;;;;;;12.55;4.75;;;13.80;99.90;;;;;;4947214;28;114703;-66
2022/05/11 01:28:20;;;;;;;12.52;4.63;;;13.80;99.90;;;;;;4973659;28;207745;-66
2022/05/11 01:30:50;;;;;;;12.40;4.47;;;13.80;99.90;;;;;;4949422;28;203094;-66
2022/05/11 01:33:22;;;;;;;12.07;5.30;;;13.80;99.90;;;;;;4991663;28;20058;-66
2022/05/11 01:36:13;;;;;;;11.30;4.85;;;13.80;99.90;;;;;;4908874;28;206000;-66
2022/05/11 01:38:40;;;;;;;14.68;5.03;;;13.80;99.90;;;;;;4923252;28;213109;-66
2022/05/11 01:41:09;;;;;;;12.23;4.85;;;13.80;99.90;;;;;;4973499;28;248605;-66
2022/05/11 01:43:38;;;;;;;12.75;5.18;;;13.80;99.90;;;;;;4949809;28;216178;-66
2022/05/11 01:46:05;;;;;;;11.70;4.72;;;13.80;99.90;;;;;;4966137;28;193389;-66
2022/05/11 01:48:31;;;;;;;12.37;4.87;;;13.80;99.90;;;;;;4928887;28;210619;-66
2022/05/11 01:50:57;;;;;;;11.65;5.10;;;13.80;99.90;;;;;;4949512;28;79322;-66
2022/05/11 01:53:24;;;;;;;11.30;4.93;;;13.80;99.90;;;;;;4918296;28;211040;-66
2022/05/11 01:55:51;;;;;;;12.77;4.85;;;13.80;99.90;;;;;;4946876;28;142563;-66
2022/05/11 01:58:20;;;;;;;11.23;5.13;;;13.80;99.90;;;;;;4991694;28;213681;-66
2022/05/11 02:00:47;;;;;;;11.13;4.55;;;13.70;99.90;;;;;;4935753;28;185611;-66
2022/05/11 02:03:18;;;;;;;11.27;4.82;;;13.70;99.90;;;;;;4992575;28;20074;-66
2022/05/11 02:08:31;;;;;;;12.85;4.80;;;13.80;99.90;;;;;;4949691;28;212065;-66
2022/05/11 02:10:58;;;;;;;11.95;4.93;;;13.80;99.90;;;;;;4940618;28;219981;-66
2022/05/11 02:13:24;;;;;;;10.68;4.50;;;13.70;99.90;;;;;;4916764;28;217250;-66
2022/05/11 02:15:50;;;;;;;10.50;4.53;;;13.70;99.90;;;;;;4964854;28;20072;-65
2022/05/11 02:18:17;;;;;;;12.27;4.57;;;13.70;99.90;;;;;;4980210;28;20057;-65
2022/05/11 02:20:43;;;;;;;15.07;5.00;;;13.70;99.90;;;;;;4950070;28;86364;-66
2022/05/11 02:23:14;;;;;;;11.98;4.60;;;13.70;99.90;;;;;;4962612;28;20507;-66
2022/05/11 02:25:45;;;;;;;11.65;4.47;;;13.70;99.90;;;;;;4940027;28;206384;-65
2022/05/11 02:28:12;;;;;;;12.60;4.63;;;13.70;99.90;;;;;;4979504;28;20050;-65
2022/05/11 02:30:39;;;;;;;10.30;4.43;;;13.70;99.90;;;;;;4930819;28;219515;-65
2022/05/11 02:33:06;;;;;;;11.68;4.70;;;13.70;99.90;;;;;;4962853;28;20389;-65
2022/05/11 02:35:33;;;;;;;11.15;4.50;;;13.70;99.90;;;;;;4930067;28;245832;-65
2022/05/11 02:38:05;;;;;;;10.18;4.43;;;13.70;99.90;;;;;;4993225;28;20066;-65
2022/05/11 02:40:35;;;;;;;14.80;4.65;;;13.70;99.90;;;;;;4928884;28;255394;-65
2022/05/11 02:43:02;;;;;;;13.27;4.57;;;13.70;99.90;;;;;;4994160;28;20050;-66
2022/05/11 02:45:30;;;;;;;10.93;4.25;;;13.70;99.90;;;;;;4942278;28;206895;-65
2022/05/11 02:47:58;;;;;;;11.60;4.80;;;13.70;99.90;;;;;;4943773;28;20047;-65
2022/05/11 02:50:35;;;;;;;11.77;4.20;;;13.70;99.90;;;;;;4942939;28;204345;-66
2022/05/11 02:53:03;;;;;;;11.10;4.40;;;13.70;99.90;;;;;;4963992;28;20058;-66
2022/05/11 02:55:29;;;;;;;13.75;4.95;;;13.70;99.90;;;;;;4931993;28;209951;-65
2022/05/11 02:57:55;;;;;;;14.82;5.07;;;13.60;99.90;;;;;;4964398;28;20405;-65
2022/05/11 03:00:22;;;;;;;10.75;4.53;;;13.60;99.90;;;;;;4939395;28;215120;-65
2022/05/11 03:02:48;;;;;;;14.07;4.82;;;13.70;99.90;;;;;;4960139;28;20054;-65
2022/05/11 03:05:14;;;;;;;14.57;4.93;;;13.70;99.90;;;;;;4912170;28;216770;-65
2022/05/11 03:07:40;;;;;;;11.55;4.90;;;13.60;99.90;;;;;;4965791;28;20061;-65
2022/05/11 03:10:08;;;;;;;15.25;5.10;;;13.70;99.90;;;;;;4932635;28;210805;-65
2022/05/11 03:12:35;;;;;;;13.18;5.28;;;13.70;99.90;;;;;;4944903;28;20042;-66
2022/05/11 03:15:03;;;;;;;13.40;5.05;;;13.70;99.90;;;;;;4926926;28;206210;-65
2022/05/11 03:17:29;;;;;;;11.02;4.80;;;13.70;99.90;;;;;;4967564;28;20058;-66
2022/05/11 03:19:55;;;;;;;10.57;5.28;;;13.70;99.90;;;;;;4914700;28;206718;-66
2022/05/11 03:22:21;;;;;;;12.80;5.32;;;13.70;99.90;;;;;;4952399;28;20504;-66
2022/05/11 03:24:47;;;;;;;13.90;5.53;;;13.70;99.90;;;;;;4930558;28;220258;-65
2022/05/11 03:27:13;;;;;;;13.05;5.35;;;13.70;99.90;;;;;;4975067;28;20520;-65
2022/05/11 03:29:39;;;;;;;10.38;5.00;;;13.70;99.90;;;;;;4932654;28;250544;-67
2022/05/11 03:34:50;;;;;;;14.15;5.32;;;13.70;99.90;;;;;;4927417;28;209422;-65
2022/05/11 03:37:18;;;;;;;13.35;5.38;;;13.70;99.90;;;;;;4967223;28;20508;-66
2022/05/11 03:39:45;;;;;;;12.95;5.50;;;13.70;99.90;;;;;;4931965;28;220263;-66
2022/05/11 03:42:14;;;;;;;12.75;5.43;;;13.70;99.90;;;;;;4969466;28;20055;-65
2022/05/11 03:44:40;;;;;;;11.07;4.93;;;13.70;99.90;;;;;;4935871;28;208017;-65
2022/05/11 03:47:06;;;;;;;14.25;5.10;;;13.70;99.90;;;;;;4967726;28;20047;-65
2022/05/11 03:49:33;;;;;;;11.05;4.70;;;13.70;99.90;;;;;;4929017;28;207280;-65
2022/05/11 03:52:01;;;;;;;13.45;4.85;;;13.70;99.90;;;;;;4987697;28;20062;-65
2022/05/11 03:54:27;;;;;;;15.60;5.00;;;13.70;99.90;;;;;;4920974;28;224130;-65
2022/05/11 03:56:53;;;;;;;13.45;5.18;;;13.70;99.90;;;;;;4966503;28;20061;-65
2022/05/11 03:59:19;;;;;;;13.38;5.05;;;13.70;99.90;;;;;;4928530;28;237897;-66
2022/05/11 04:01:45;;;;;;;12.07;4.32;;;13.70;99.90;;;;;;4972710;28;20503;-66
2022/05/11 04:04:12;;;;;;;14.50;4.82;;;13.70;99.90;;;;;;4899450;28;206610;-66
2022/05/11 04:06:38;;;;;;;13.30;4.78;;;13.70;99.90;;;;;;4966116;28;20050;-65
2022/05/11 04:09:04;;;;;;;15.75;5.22;;;13.70;99.90;;;;;;4917472;28;211929;-65
2022/05/11 04:11:31;;;;;;;13.65;4.90;;;13.70;99.90;;;;;;4961410;28;20043;-66
2022/05/11 04:13:57;;;;;;;13.43;4.38;;;13.70;99.90;;;;;;4938381;28;133521;-66
2022/05/11 04:16:24;;;;;;;13.38;4.43;;;13.70;99.90;;;;;;4976194;28;20054;-65
2022/05/11 04:18:50;;;;;;;11.32;4.28;;;13.80;99.90;;;;;;4952254;28;206454;-65
2022/05/11 04:21:16;;;;;;;12.27;4.57;;;13.80;99.90;;;;;;4975866;28;256494;-66
2022/05/11 04:23:43;;;;;;;10.80;4.30;;;13.80;99.90;;;;;;4942665;28;208641;-65
2022/05/11 04:26:13;;;;;;;14.18;4.50;;;13.80;99.90;;;;;;4953099;28;137059;-66
2022/05/11 04:28:43;;;;;;;12.00;4.43;;;13.80;99.90;;;;;;4961735;28;209987;-65
2022/05/11 04:31:11;;;;;;;12.77;4.60;;;13.80;99.90;;;;;;4963160;28;82437;-66
2022/05/11 04:33:38;;;;;;;11.32;4.68;;;13.80;99.90;;;;;;4920712;28;210359;-65
2022/05/11 04:36:05;;;;;;;14.38;5.00;;;13.80;99.90;;;;;;4959519;28;100840;-66
2022/05/11 04:38:31;;;;;;;13.25;4.50;;;13.90;99.90;;;;;;4920696;28;210695;-66
2022/05/11 04:40:57;;;;;;;12.38;4.57;;;13.90;99.90;;;;;;4964392;28;78519;-65
2022/05/11 04:43:24;;;;;;;16.33;5.05;;;13.90;99.90;;;;;;4933976;28;209269;-66
2022/05/11 04:45:50;;;;;;;13.48;4.47;;;13.90;99.90;;;;;;4960203;28;241737;-65
2022/05/11 04:48:18;;;;;;;14.13;4.78;;;13.90;99.90;;;;;;4977214;28;20050;-66
2022/05/11 04:50:45;;;;;;;12.07;4.57;;;14.00;99.90;;;;;;4943094;28;148205;-65
2022/05/11 04:53:15;;;;;;;14.98;4.78;;;14.00;99.90;;;;;;4981051;28;20079;-66
2022/05/11 04:55:43;;;;;;;16.20;4.55;;;14.00;99.90;;;;;;4945499;28;210016;-66
2022/05/11 04:58:09;;;;;;;13.07;4.30;;;14.00;99.90;;;;;;4993807;28;20058;-66
2022/05/11 05:00:35;;;;;;;12.68;4.50;;;14.10;99.90;;;;;;4923529;28;204003;-66
2022/05/11 05:03:06;;;;;;;13.98;4.68;;;14.10;99.90;;;;;;4967182;28;20117;-66
2022/05/11 05:05:33;;;;;;;17.95;4.78;;;14.20;99.90;;;;;;4899826;28;217197;-66
2022/05/11 05:07:59;;;;;;;14.70;4.90;;;14.20;99.90;;;;;;4977005;28;20055;-66
2022/05/11 05:10:25;;;;;;;13.40;4.70;;;14.20;99.90;;;;;;4923125;28;277874;-66
2022/05/11 05:12:51;;;;;;;11.85;4.68;;;14.20;99.90;;;;;;4993525;28;20054;-67
2022/05/11 05:15:18;;;;;;;15.20;5.10;;;14.20;99.90;;;;;;4901443;28;243179;-66
2022/05/11 05:17:44;;;;;;;12.90;4.70;;;14.30;99.90;;;;;;4961162;28;20505;-66
2022/05/11 05:20:13;;;;;;;11.88;4.22;;;14.30;99.90;;;;;;4938988;28;209506;-66
2022/05/11 05:22:39;;;;;;;13.18;5.00;;;14.30;99.90;;;;;;4963939;28;20404;-66
2022/05/11 05:25:06;;;;;;;15.57;4.68;;;14.30;99.90;;;;;;4936655;28;207659;-66
2022/05/11 05:27:32;;;;;;;13.30;4.75;;;14.30;99.90;;;;;;4962289;28;20058;-66
2022/05/11 05:32:44;;;;;;;16.08;5.05;;;14.40;99.90;;;;;;4963046;28;20054;-66
2022/05/11 05:35:16;;;;;;;13.35;4.47;;;14.40;99.90;;;;;;4930964;28;213688;-66
2022/05/11 05:37:43;;;;;;;13.73;4.40;;;14.40;99.90;;;;;;4960681;28;20059;-66
2022/05/11 05:40:10;;;;;;;11.45;4.30;;;14.50;99.90;;;;;;4928159;28;231486;-66
2022/05/11 05:42:37;;;;;;;11.82;4.45;;;14.50;99.90;;;;;;4962497;28;20054;-66
2022/05/11 05:45:06;;;;;;;15.18;4.80;;;14.50;99.90;;;;;;4917991;28;205652;-66
2022/05/11 05:47:33;;;;;;;15.85;4.55;;;14.50;99.90;;;;;;4961999;28;20058;-66
2022/05/11 05:49:59;;;;;;;17.38;4.75;;;14.60;99.90;;;;;;4915963;28;210675;-67
2022/05/11 05:52:26;;;;;;;12.95;4.65;;;14.70;99.90;;;;;;4970768;28;20063;-66
2022/05/11 05:54:55;;;;;;;15.65;4.85;;;14.70;99.90;;;;;;4912368;28;207930;-65
2022/05/11 05:57:21;;;;;;;13.20;4.47;;;14.80;99.90;;;;;;4960768;28;20061;-66
2022/05/11 05:59:47;;;;;;;15.07;4.70;;;14.80;99.90;;;;;;4914694;28;206737;-67
2022/05/11 06:02:14;;;;;;;13.98;5.00;;;14.90;99.90;;;;;;4962807;28;20051;-67
2022/05/11 06:04:46;;;;;;;13.10;5.00;;;14.90;99.90;;;;;;4908701;28;207163;-66
2022/05/11 06:07:12;;;;;;;;;;;14.90;99.90;;;;;;4956399;28;20062;-67
2022/05/11 06:09:39;;;;;;;13.38;5.03;;;14.90;99.90;;;;;;4939819;28;206749;-67
2022/05/11 06:12:12;;;;;;;15.07;5.28;;;14.90;99.90;;;;;;4963665;28;20047;-67
2022/05/11 06:14:39;;;;;;;15.63;5.25;;;14.90;99.90;;;;;;4918682;28;210479;-67
2022/05/11 06:17:16;;;;;;;17.20;5.80;;;14.90;99.90;;;;;;4962685;28;20051;-67
2022/05/11 06:19:43;;;;;;;15.32;5.25;;;15.00;99.90;;;;;;4913996;28;210354;-67
2022/05/11 06:22:10;;;;;;;18.33;5.65;;;15.10;99.90;;;;;;4961397;28;20429;-67
2022/05/11 06:24:36;;;;;;;15.20;5.15;;;15.10;99.90;;;;;;4937166;28;206303;-67
2022/05/11 06:27:03;;;;;;;15.45;5.32;;;15.20;99.90;;;;;;4958526;28;20508;-67
2022/05/11 06:29:29;;;;;;;15.40;5.35;;;15.20;99.90;;;;;;4931002;28;221139;-67
2022/05/11 06:31:55;;;;;;;16.02;5.35;;;15.30;99.90;;;;;;4983561;28;20054;-67
2022/05/11 06:34:21;;;;;;;11.90;4.88;;;15.40;99.90;;;;;;4932472;28;72360;-66
2022/05/11 06:36:49;;;;;;;17.25;5.22;;;15.40;99.90;;;;;;4968167;28;20508;-67
2022/05/11 06:39:15;;;;;;;18.73;5.32;;;15.50;99.90;;;;;;4915615;28;206490;-67
2022/05/11 06:41:41;;;;;;;15.43;4.85;;;15.60;99.90;;;;;;4967825;28;20046;-66
2022/05/11 06:44:08;;;;;;;17.80;5.15;;;15.60;99.90;;;;;;4942324;28;216211;-67
2022/05/11 06:46:34;;;;;;;15.77;5.75;;;15.60;99.90;;;;;;4972132;28;20063;-67
2022/05/11 06:49:00;;;;;;;14.05;5.28;;;15.60;99.90;;;;;;4906524;28;210181;-66
2022/05/11 06:51:26;;;;;;;14.77;5.00;;;15.60;99.90;;;;;;4970107;28;20059;-67
2022/05/11 06:59:29;;;;;;;15.13;4.60;;;15.80;99.90;;;;;;4924042;28;212482;-67
2022/05/11 07:02:03;;;;;;;13.77;4.80;;;15.90;99.90;;;;;;4949625;28;20400;-67
2022/05/11 07:04:33;;;;;;;15.77;4.88;;;15.90;99.90;;;;;;4900050;28;206300;-67
2022/05/11 07:07:00;;;;;;;16.73;5.30;;;15.90;99.90;;;;;;4961017;28;20061;-67
2022/05/11 07:09:31;;;;;;;16.88;4.43;;;15.90;99.90;;;;;;4926345;28;92096;-67
2022/05/11 07:14:47;;;;;;;14.80;4.35;;;16.00;99.90;;;;;;4916604;28;222509;-67
2022/05/11 07:17:24;;;;;;;12.98;4.10;;;16.10;99.90;;;;;;4966897;28;20054;-67
2022/05/11 07:19:50;;;;;;;15.38;4.50;;;16.20;99.90;;;;;;4945128;28;109892;-67
2022/05/11 07:22:16;;;;;;;13.93;4.20;;;16.30;99.90;;;;;;4942977;28;20432;-67
2022/05/11 07:24:43;;;;;;;13.57;4.25;;;16.40;99.90;;;;;;4923120;28;215883;-67
2022/05/11 07:27:09;;;;;;;16.75;4.18;;;16.70;99.90;;;;;;4975347;28;20054;-67
2022/05/11 07:29:35;;;;;;;19.73;4.45;;;16.70;99.90;;;;;;4913576;28;248116;-67
2022/05/11 07:32:02;;;;;;;15.13;4.30;;;16.60;99.90;;;;;;4973260;28;20061;-67
2022/05/11 07:34:29;;;;;;;19.90;4.45;;;16.50;99.90;;;;;;4928630;28;212332;-67
2022/05/11 07:36:55;;;;;;;14.45;4.15;;;16.70;99.90;;;;;;4956804;28;20059;-67
2022/05/11 07:39:23;;;;;;;14.55;3.95;;;16.80;99.90;;;;;;4909327;28;201508;-67
2022/05/11 07:41:49;;;;;;;14.38;4.00;;;16.90;99.90;;;;;;4971549;28;20051;-67
2022/05/11 07:44:16;;;;;;;14.23;3.95;;;17.00;99.90;;;;;;4920876;28;210030;-67
2022/05/11 07:46:43;;;;;;;14.27;3.75;;;17.10;99.90;;;;;;4969527;28;20062;-67
2022/05/11 07:49:11;;;;;;;15.75;3.70;;;17.00;99.90;;;;;;4951429;28;205743;-67
2022/05/11 07:51:38;;;;;;;14.68;3.58;;;17.00;99.90;;;;;;4977257;28;20047;-68
2022/05/11 07:54:04;;;;;;;14.02;2.83;;;17.00;99.90;;;;;;4943233;28;203923;-67
2022/05/11 08:02:00;;;;;;;13.60;2.97;;;16.90;99.90;;;;;;4989907;28;20062;-67
2022/05/11 08:04:26;;;;;;;15.00;3.30;;;16.90;99.90;;;;;;4897954;28;208874;-67
2022/05/11 08:06:52;;;;;;;15.23;3.05;;;17.00;99.90;;;;;;4970794;28;21583;-67
2022/05/11 08:09:18;;;;;;;17.45;3.47;;;17.10;99.90;;;;;;4924686;28;150450;-67
2022/05/11 08:11:45;;;;;;;15.65;3.30;;;17.30;99.90;;;;;;4982593;28;20791;-67
2022/05/11 08:14:14;;;;;;;15.15;3.40;;;17.50;99.90;;;;;;4938988;28;206572;-67
2022/05/11 08:16:40;;;;;;;13.98;2.92;;;17.50;99.90;;;;;;4970974;28;20496;-67
2022/05/11 08:19:07;;;;;;;15.65;2.90;;;17.40;99.90;;;;;;4942111;28;207512;-66
2022/05/11 08:21:36;;;;;;;14.38;3.03;;;17.40;99.90;;;;;;4978765;28;20145;-68
2022/05/11 08:24:02;;;;;;;15.68;2.85;;;17.70;99.90;;;;;;4927332;28;229030;-67
2022/05/11 08:26:28;;;;;;;17.02;2.78;;;18.20;99.90;;;;;;4972234;28;20059;-67
2022/05/11 08:28:55;;;;;;;18.63;3.53;;;18.50;99.90;;;;;;4916960;28;206222;-67
2022/05/11 08:34:06;;;;;;;17.75;3.20;;;18.50;99.90;;;;;;4921436;28;253090;-67
2022/05/11 08:36:32;;;;;;;15.95;2.80;;;18.40;99.90;;;;;;4991561;28;20066;-66
2022/05/11 08:39:00;;;;;;;16.30;2.80;;;18.30;99.90;;;;;;4925500;28;197682;-67
2022/05/11 08:41:42;;;;;;;12.07;2.58;;;18.10;99.90;;;;;;4970649;28;20524;-68
2022/05/11 08:44:20;;;;;;;14.25;2.67;;;18.10;99.90;;;;;;4922174;28;218141;-67
2022/05/11 08:47:02;;;;;;;13.88;2.38;;;18.10;99.90;;;;;;4976836;28;20058;-67
2022/05/11 08:49:47;;;;;;;15.57;2.65;;;18.20;99.90;;;;;;4927671;28;209010;-66
2022/05/11 08:52:58;;;;;;;13.90;2.60;;;18.30;99.90;;;;;;4972945;28;20058;-67
2022/05/11 08:55:37;;;;;;;16.50;2.55;;;18.40;99.90;;;;;;4909162;28;206642;-67
2022/05/11 08:58:09;;;;;;;13.57;2.53;;;18.40;99.90;;;;;;4979873;28;20050;-66
2022/05/11 09:00:39;;;;;;;18.50;2.97;;;18.60;99.90;;;;;;4919813;28;228026;-67
2022/05/11 09:03:30;;;;;;;14.10;2.38;;;19.00;99.90;;;;;;4966691;28;20057;-67
2022/05/11 09:05:58;;;;;;;16.25;2.67;;;19.30;98.80;;;;;;4911921;28;187808;-67
2022/05/11 09:08:25;;;;;;;14.93;2.50;;;19.60;98.60;;;;;;4944725;28;205747;-66
2022/05/11 09:10:52;;;;;;;16.90;2.72;;;19.50;99.00;;;;;;4941500;28;255047;-67
2022/05/11 09:13:22;;;;;;;14.90;2.53;;;19.60;98.30;;;;;;4938928;28;145384;-66
2022/05/11 09:15:49;;;;;;;16.13;2.60;;;19.40;98.00;;;;;;4915706;28;206817;-67
2022/05/11 09:18:15;;;;;;;15.30;2.92;;;19.40;98.20;;;;;;4969773;28;20046;-67
2022/05/11 09:20:52;;;;;;;14.40;2.35;;;19.30;98.60;;;;;;4911033;28;220617;-66
2022/05/11 09:23:27;;;;;;;14.02;2.47;;;19.40;97.70;;;;;;4972704;28;118532;-66
2022/05/11 09:26:05;;;;;;;14.40;2.38;;;19.50;97.70;;;;;;4906980;28;206287;-67
2022/05/11 09:28:34;;;;;;;15.55;2.78;;;19.50;97.00;;;;;;4940498;28;205973;-67
2022/05/11 09:31:09;;;;;;;14.65;2.92;;;19.60;97.70;;;;;;4951129;28;49792;-67
2022/05/11 09:33:55;;;;;;;13.88;2.75;;;19.50;97.70;;;;;;4927126;28;211722;-67
2022/05/11 09:36:37;;;;;;;17.15;3.22;;;19.60;97.20;;;;;;4954859;28;247348;-67
2022/05/11 09:39:13;;;;;;;13.48;2.80;;;19.60;97.20;;;;;;4908220;28;246723;-66
2022/05/11 09:41:41;;;;;;;18.27;3.05;;;19.70;97.60;;;;;;4970041;28;20058;-67
2022/05/11 09:44:20;;;;;;;15.50;2.75;;;19.60;97.70;;;;;;4947330;28;206341;-66
2022/05/11 09:46:47;;;;;;;14.18;2.50;;;19.80;97.20;;;;;;4972362;28;20055;-67
2022/05/11 09:49:19;;;;;;;19.27;3.10;;;19.90;96.50;;;;;;4926152;28;119061;-67
2022/05/11 09:51:45;;;;;;;14.60;2.67;;;20.40;97.50;;;;;;4967955;28;20053;-67
2022/05/11 09:54:42;;;;;;;13.98;2.60;;;20.80;96.60;;;;;;4912990;28;213693;-67
2022/05/11 09:57:09;;;;;;;15.27;2.70;;;21.20;95.70;;;;;;4964263;28;20065;-67
2022/05/11 09:59:38;;;;;;;14.35;2.80;;;21.30;94.40;;;;;;4917361;28;207139;-67
2022/05/11 10:02:34;;;;;;;14.05;2.13;;;21.10;94.90;;;;;;4971645;28;20066;-67
2022/05/11 10:05:20;;;;;;;13.15;2.20;;;20.70;95.00;;;;;;4888774;28;210192;-67
2022/05/11 10:08:29;;;;;;;18.00;2.63;;;21.00;95.60;;;;;;4992750;28;20523;-67
2022/05/11 10:11:18;;;;;;;11.93;2.50;;;21.50;92.90;;;;;;4915151;28;206700;-67
2022/05/11 10:21:50;;;;;;;20.90;2.72;;;21.50;91.80;;;;;;4929310;28;212881;-68
2022/05/11 10:22:25;;;;;;;12.55;2.40;;;21.20;92.60;;;;;;4969613;28;20066;-67
2022/05/11 10:25:00;;;;;;;15.65;2.35;;;21.40;92.40;;;;;;4918083;28;219118;-67
2022/05/11 10:27:46;;;;;;;13.35;2.10;;;21.70;91.60;;;;;;4972869;28;20046;-67
2022/05/11 10:30:31;;;;;;;16.48;2.40;;;22.10;89.20;;;;;;4943171;28;184188;-67
2022/05/11 10:33:12;;;;;;;13.70;2.30;;;22.10;90.10;;;;;;4968103;28;20420;-67
2022/05/11 10:35:59;;;;;;;11.77;2.63;;;21.70;90.70;;;;;;4928309;28;255450;-67
2022/05/11 10:38:37;;;;;;;12.07;2.33;;;21.10;88.10;;;;;;4921332;28;215689;-67
2022/05/11 10:41:21;;;;;;;13.00;2.13;;;21.10;90.00;;;;;;4978094;28;53636;-67
2022/05/11 10:44:00;;;;;;;11.98;2.08;;;21.40;90.00;;;;;;4926150;28;215318;-67
2022/05/11 10:47:21;;;;;;;10.65;1.85;;;21.30;89.60;;;;;;4942582;28;20509;-67
2022/05/11 10:50:09;;;;;;;14.43;2.35;;;20.70;88.80;;;;;;4872678;28;214551;-66
2022/05/11 10:53:19;;;;;;;13.65;2.72;;;20.80;90.40;;;;;;4921130;28;20055;-67
2022/05/11 10:56:23;;;;;;;13.75;2.33;;;20.70;91.50;;;;;;4862579;29;213641;-67
2022/05/11 10:59:26;;;;;;;10.75;1.90;;;21.20;88.90;;;;;;4861624;29;206416;-68
2022/05/11 11:02:17;;;;;;;11.40;1.65;;;21.70;85.20;;;;;;4874006;29;20052;-68
2022/05/11 11:05:02;;;;;;;16.20;2.10;;;21.90;81.50;;;;;;4813656;29;156353;-68
2022/05/11 11:07:42;;;;;;;14.32;2.30;;;22.10;80.50;;;;;;4873024;29;20063;-68
2022/05/11 11:10:14;;;;;;;11.90;1.93;;;22.00;82.90;;;;;;4842751;29;207315;-68
2022/05/11 11:12:51;;;;;;;10.43;1.40;;;21.90;82.60;;;;;;4886789;29;20800;-67
2022/05/11 11:15:22;;;;;;;15.35;1.60;;;22.20;77.10;;;;;;4826993;29;206448;-67
2022/05/11 11:17:50;;;;;;;12.63;1.67;;;22.40;73.00;;;;;;4903507;29;20056;-67
2022/05/11 11:20:19;;;;;;;12.63;2.08;;;22.10;76.00;;;;;;4833517;29;218574;-67
2022/05/11 11:23:28;;;;;;;13.10;2.00;;;22.10;77.40;;;;;;4906878;29;20066;-67
2022/05/11 11:25:56;;;;;;;12.10;1.80;;;22.10;77.20;;;;;;4822449;29;207186;-67
2022/05/11 11:28:28;;;;;;;11.18;1.40;;;22.40;77.00;;;;;;4900737;28;107188;-67
2022/05/11 11:31:00;;;;;;;11.27;1.90;;;22.70;71.70;;;;;;4889827;29;243642;-68
2022/05/11 11:33:28;;;;;;;23.10;2.13;;;23.00;70.60;;;;;;4903443;28;208554;-67
2022/05/11 11:35:59;;;;;;;15.07;2.50;;;23.20;70.70;;;;;;4954805;28;39070;-68
2022/05/11 11:38:44;;;;;;;11.73;1.77;;;22.60;72.50;;;;;;4929801;28;208778;-68
2022/05/11 11:41:30;;;;;;;11.23;1.63;;;22.60;72.50;;;;;;4957966;28;162274;-66
2022/05/11 11:44:01;;;;;;;10.48;1.67;;;22.90;72.50;;;;;;4923798;28;218264;-66
2022/05/11 11:46:35;;;;;;;;;;;23.40;71.70;;;;;;4971998;28;20050;-66
2022/05/11 11:49:11;;;;;;;11.93;1.83;;;23.60;66.30;;;;;;4925640;28;212629;-66
2022/05/11 11:51:50;;;;;;;10.82;1.80;;;23.70;67.10;;;;;;4964859;28;20058;-67
2022/05/11 11:54:36;;;;;;;16.05;2.00;;;23.90;64.20;;;;;;4929803;28;221523;-66
2022/05/11 11:57:14;;;;;;;11.95;1.88;;;24.00;64.40;;;;;;4957189;28;20054;-66
2022/05/11 11:59:57;;;;;;;13.95;1.80;;;24.00;64.80;;;;;;4931712;28;207647;-66
2022/05/11 12:02:33;;;;;;;9.25;1.60;;;23.80;64.40;;;;;;4965643;28;20078;-66
2022/05/11 12:05:08;;;;;;;12.20;1.83;;;23.80;63.20;;;;;;4909418;28;213720;-66
2022/05/11 12:16:15;;;;;;;9.88;2.03;;;23.30;65.10;;;;;;4931751;28;171431;-66
2022/05/11 12:18:42;;;;;;;12.50;2.15;;;23.40;65.20;;;;;;4930665;28;213348;-66
2022/05/11 12:21:22;;;;;;;10.75;1.95;;;23.70;65.40;;;;;;4980078;28;105348;-67
2022/05/11 12:23:50;;;;;;;10.18;2.20;;;23.40;65.90;;;;;;4946808;28;210944;-67
2022/05/11 12:26:26;;;;;;;15.68;2.30;;;23.20;65.50;;;;;;4958610;28;139750;-67
2022/05/11 12:29:54;;;;;;;13.18;2.10;;;22.50;64.00;;;;;;4946618;28;195535;-66
2022/05/11 12:31:55;;;;;;;11.77;2.13;;;23.20;66.20;;;;;;4959734;28;20485;-67
2022/05/11 12:34:26;;;;;;;13.98;2.60;;;23.00;65.80;;;;;;4927043;28;210780;-67
2022/05/11 12:36:53;;;;;;;;;;;22.80;65.70;;;;;;4965565;28;20063;-68
2022/05/11 12:39:36;;;;;;;13.27;2.55;;;23.00;66.50;;;;;;4910037;28;213600;-67
2022/05/11 12:42:03;;;;;;;14.48;2.10;;;22.50;65.50;;;;;;4970031;28;20050;-66
2022/05/11 12:44:33;;;;;;;12.23;1.90;;;22.30;67.20;;;;;;4924889;28;118688;-67
2022/05/11 12:47:01;;;;;;;13.05;2.33;;;22.60;67.70;;;;;;4969553;28;20051;-67
2022/05/11 12:49:28;;;;;;;13.00;2.10;;;22.90;66.00;;;;;;4916611;28;209753;-66
2022/05/11 12:52:03;;;;;;;13.23;2.00;;;23.20;67.10;;;;;;4968377;28;20054;-67
2022/05/11 12:54:31;;;;;;;18.08;2.95;;;23.40;63.10;;;;;;4918721;28;207769;-66
2022/05/11 12:56:59;;;;;;;15.80;2.20;;;23.60;63.30;;;;;;4971310;28;20058;-67
2022/05/11 12:59:31;;;;;;;13.68;2.40;;;23.70;63.90;;;;;;4921416;28;206091;-67
2022/05/11 13:02:16;;;;;;;10.88;2.10;;;23.80;63.60;;;;;;4970203;28;20566;-67
2022/05/11 13:04:54;;;;;;;13.13;2.20;;;23.50;63.80;;;;;;4910687;28;212633;-66
2022/05/11 13:07:44;;;;;;;12.65;2.30;;;23.30;65.00;;;;;;4964991;28;20055;-66
2022/05/11 13:10:25;;;;;;;18.02;2.72;;;23.30;64.50;;;;;;4927039;28;158980;-66
2022/05/11 13:12:56;;;;;;;16.80;2.65;;;23.30;64.70;;;;;;4993178;28;20055;-67
2022/05/11 13:15:38;;;;;;;15.27;3.00;;;23.40;65.40;;;;;;4936925;28;212414;-67
2022/05/11 13:18:06;;;;;;;13.52;2.30;;;23.10;64.00;;;;;;4994895;28;20050;-66
2022/05/11 13:20:37;;;;;;;13.07;2.42;;;22.60;65.50;;;;;;4936939;28;206526;-67
2022/05/11 13:23:07;;;;;;;;;;;21.90;66.30;;;;;;4963819;28;20078;-66
2022/05/11 13:25:53;;;;;;;13.73;2.20;;;22.10;66.70;;;;;;4921212;28;206777;-67
2022/05/11 13:28:27;;;;;;;13.68;2.03;;;22.10;67.00;;;;;;4978023;28;224919;-67
2022/05/11 13:31:32;;;;;;;13.32;2.47;;;22.70;66.90;;;;;;4923973;28;170726;-67
2022/05/11 13:34:01;;;;;;;14.55;1.92;;;22.70;66.30;;;;;;4927441;28;159388;-66